Time;durP1;ratioP1;P1;durP2;ratioP2;P2;SDS_P1;SDS_P2;PMS_P1;PMS_P2;Temp;Humidity;BMP_temperature;BMP_pressure;BME280_temperature;BME280_humidity;BME280_pressure;Samples;Min_cycle;Max_cycle;Signal;HPM_P1;HPM_P2
2022/06/08 00:02:06;;;;;;;34.58;17.55;;;8.50;99.90;;;;;;5073607;28;20376;-33
2022/06/08 00:04:32;;;;;;;25.38;17.70;;;8.50;99.90;;;;;;5072353;28;20053;-34
2022/06/08 00:06:58;;;;;;;28.67;18.23;;;8.40;99.90;;;;;;5072786;28;20374;-33
2022/06/08 00:09:24;;;;;;;36.00;17.90;;;8.50;99.90;;;;;;5073226;28;20045;-33
2022/06/08 00:11:50;;;;;;;31.73;17.67;;;8.50;99.90;;;;;;5072007;28;20121;-35
2022/06/08 00:14:16;;;;;;;35.50;18.17;;;8.40;99.90;;;;;;5075375;28;20048;-33
2022/06/08 00:16:42;;;;;;;28.33;18.23;;;8.40;99.90;;;;;;5076530;28;20044;-34
2022/06/08 00:19:08;;;;;;;29.90;16.65;;;8.40;99.90;;;;;;5076999;28;20097;-34
2022/06/08 00:21:35;;;;;;;33.85;18.75;;;8.40;99.90;;;;;;5075828;28;20052;-35
2022/06/08 00:24:01;;;;;;;36.85;19.95;;;8.40;99.90;;;;;;5076909;28;20056;-34
2022/06/08 00:26:27;;;;;;;35.17;19.08;;;8.40;99.90;;;;;;5075677;28;20041;-33
2022/06/08 00:28:53;;;;;;;28.27;17.80;;;8.30;99.90;;;;;;5076848;28;20414;-33
2022/06/08 00:31:20;;;;;;;36.28;17.98;;;8.30;99.90;;;;;;5076829;28;20044;-33
2022/06/08 00:33:46;;;;;;;31.02;17.48;;;8.30;99.90;;;;;;5042570;28;20502;-35
2022/06/08 00:36:12;;;;;;;28.02;16.80;;;8.30;99.90;;;;;;5076624;28;20474;-33
2022/06/08 00:38:37;;;;;;;40.60;16.70;;;8.40;99.90;;;;;;5076361;28;20048;-34
2022/06/08 00:41:25;;;;;;;37.20;18.10;;;8.50;99.90;;;;;;5076675;28;20119;-33
2022/06/08 00:43:51;;;;;;;39.08;20.15;;;8.30;99.90;;;;;;5075955;28;20063;-35
2022/06/08 00:46:17;;;;;;;35.10;17.52;;;8.30;99.90;;;;;;5077617;28;20046;-33
2022/06/08 00:48:50;;;;;;;32.38;17.83;;;8.30;99.90;;;;;;5076522;28;20108;-33
2022/06/08 00:51:16;;;;;;;;;;;8.20;99.90;;;;;;5076916;28;20044;-34
2022/06/08 00:54:06;;;;;;;26.42;16.42;;;8.30;99.90;;;;;;5077032;28;19921;-33
2022/06/08 00:56:36;;;;;;;30.60;17.05;;;8.20;99.90;;;;;;5076587;28;20052;-33
2022/06/08 00:59:05;;;;;;;30.40;18.35;;;8.30;99.90;;;;;;5077166;28;20052;-33
2022/06/08 01:01:31;;;;;;;33.88;19.08;;;8.30;99.90;;;;;;5076238;28;20052;-35
2022/06/08 01:04:29;;;;;;;37.05;19.55;;;8.30;99.90;;;;;;5076194;28;20043;-34
2022/06/08 01:06:57;;;;;;;33.60;19.55;;;8.30;99.90;;;;;;5067844;28;20056;-33
2022/06/08 01:09:38;;;;;;;35.50;18.83;;;8.30;99.90;;;;;;5076121;28;20111;-33
2022/06/08 01:12:12;;;;;;;43.40;21.35;;;8.30;99.90;;;;;;5075166;28;20466;-34
2022/06/08 01:14:38;;;;;;;36.50;21.15;;;8.40;99.90;;;;;;5076654;28;20418;-34
2022/06/08 01:17:10;;;;;;;36.75;21.55;;;8.60;99.90;;;;;;5076043;28;20398;-34
2022/06/08 01:19:39;;;;;;;34.53;20.38;;;8.40;99.90;;;;;;5075815;28;20044;-33
2022/06/08 01:22:07;;;;;;;35.55;21.30;;;8.50;99.90;;;;;;5075906;28;20044;-33
2022/06/08 01:24:34;;;;;;;35.88;20.65;;;8.50;99.90;;;;;;5074985;28;20044;-34
2022/06/08 01:27:22;;;;;;;32.35;18.48;;;8.50;99.90;;;;;;5058144;28;20490;-34
2022/06/08 01:30:13;;;;;;;39.63;21.52;;;8.50;99.90;;;;;;5075664;28;20379;-34
2022/06/08 01:32:57;;;;;;;36.60;19.42;;;8.50;99.90;;;;;;5075747;28;20044;-34
2022/06/08 01:35:32;;;;;;;30.25;18.98;;;8.40;99.90;;;;;;5075584;28;20044;-33
2022/06/08 01:37:58;;;;;;;33.60;18.67;;;8.50;99.90;;;;;;5075198;28;20045;-34
2022/06/08 01:40:32;;;;;;;34.97;19.88;;;8.40;99.90;;;;;;5075287;28;20052;-33
2022/06/08 01:43:06;;;;;;;31.77;17.38;;;8.40;99.90;;;;;;5075503;28;20040;-33
2022/06/08 01:45:43;;;;;;;31.88;18.45;;;8.40;99.90;;;;;;5076317;28;20048;-35
2022/06/08 01:48:45;;;;;;;33.22;18.85;;;8.30;99.90;;;;;;5074656;28;20382;-34
2022/06/08 01:51:23;;;;;;;29.17;17.00;;;8.30;99.90;;;;;;5075954;28;20071;-34
2022/06/08 01:54:31;;;;;;;45.13;17.02;;;8.20;99.90;;;;;;5075329;28;20044;-34
2022/06/08 01:57:19;;;;;;;34.03;16.55;;;8.20;99.90;;;;;;5074721;28;20508;-34
2022/06/08 02:00:11;;;;;;;31.95;16.67;;;8.20;99.90;;;;;;5075796;28;20052;-35
2022/06/08 02:02:46;;;;;;;33.53;17.77;;;8.20;99.90;;;;;;5074738;28;20508;-34
2022/06/08 02:05:16;;;;;;;30.77;16.67;;;8.20;99.90;;;;;;5075614;28;20059;-34
2022/06/08 02:07:48;;;;;;;30.38;16.58;;;8.20;99.90;;;;;;5073618;28;20094;-34
2022/06/08 02:10:16;;;;;;;33.03;17.70;;;8.20;99.90;;;;;;5075578;28;20121;-33
2022/06/08 02:12:48;;;;;;;36.50;17.55;;;8.20;99.90;;;;;;5073903;28;20466;-34
2022/06/08 02:15:27;;;;;;;32.78;18.17;;;8.10;99.90;;;;;;5074650;28;20114;-34
2022/06/08 02:17:59;;;;;;;29.92;17.77;;;8.20;99.90;;;;;;5074751;28;20195;-34
2022/06/08 02:20:39;;;;;;;28.70;17.75;;;8.10;99.90;;;;;;5074820;28;20532;-33
2022/06/08 02:23:15;;;;;;;31.20;18.52;;;8.10;99.90;;;;;;5074753;28;20041;-33
2022/06/08 02:25:54;;;;;;;34.97;17.80;;;8.10;99.90;;;;;;5074792;28;20509;-34
2022/06/08 02:28:37;;;;;;;33.50;18.05;;;8.20;99.90;;;;;;5074600;28;20052;-34
2022/06/08 02:31:40;;;;;;;34.40;17.98;;;8.50;99.90;;;;;;5074613;28;20048;-35
2022/06/08 02:34:31;;;;;;;32.63;18.20;;;8.40;99.90;;;;;;5049783;28;20482;-33
2022/06/08 02:37:04;;;;;;;36.67;17.50;;;8.50;99.90;;;;;;5057195;28;20125;-34
2022/06/08 02:39:33;;;;;;;34.53;17.90;;;8.80;99.90;;;;;;5074393;28;20052;-33
2022/06/08 02:42:12;;;;;;;37.17;18.17;;;8.60;99.90;;;;;;5073349;28;20080;-33
2022/06/08 02:44:39;;;;;;;31.27;19.13;;;8.50;99.90;;;;;;5073875;28;20044;-33
2022/06/08 02:47:30;;;;;;;38.67;18.80;;;8.90;99.90;;;;;;5056638;28;20071;-34
2022/06/08 02:50:20;;;;;;;31.55;16.92;;;8.60;99.90;;;;;;5074220;28;20049;-34
2022/06/08 02:52:48;;;;;;;36.60;17.48;;;8.50;99.90;;;;;;5056527;28;20074;-34
2022/06/08 02:55:45;;;;;;;31.55;16.73;;;8.60;99.90;;;;;;5074006;28;20044;-35
2022/06/08 02:58:24;;;;;;;36.42;18.83;;;8.50;99.90;;;;;;5073952;28;20113;-34
2022/06/08 03:00:56;;;;;;;32.05;17.63;;;8.60;99.90;;;;;;5073255;28;20048;-35
2022/06/08 03:03:31;;;;;;;41.97;19.80;;;8.70;99.90;;;;;;5074317;28;20400;-34
2022/06/08 03:06:04;;;;;;;38.72;17.80;;;8.50;99.90;;;;;;5073898;28;20130;-34
2022/06/08 03:08:42;;;;;;;41.00;18.85;;;8.60;99.90;;;;;;5074793;28;20054;-34
2022/06/08 03:11:09;;;;;;;37.63;18.27;;;8.50;99.90;;;;;;5073940;28;20055;-34
2022/06/08 03:13:43;;;;;;;42.38;20.13;;;8.30;99.90;;;;;;5073873;28;20525;-33
2022/06/08 03:16:26;;;;;;;46.10;19.58;;;8.40;99.90;;;;;;5073960;28;20449;-34
2022/06/08 03:18:52;;;;;;;34.40;17.27;;;8.70;99.90;;;;;;5073885;28;20091;-34
2022/06/08 03:21:17;;;;;;;37.47;20.27;;;8.30;99.90;;;;;;5074296;28;20135;-34
2022/06/08 03:23:43;;;;;;;40.38;20.58;;;8.90;99.90;;;;;;5072581;28;20402;-34
2022/06/08 03:26:09;;;;;;;48.70;20.05;;;8.60;99.90;;;;;;5073735;28;20442;-33
2022/06/08 03:28:34;;;;;;;42.38;20.92;;;9.40;99.90;;;;;;5073679;28;20132;-33
2022/06/08 03:31:00;;;;;;;52.45;21.50;;;8.50;99.90;;;;;;5073671;28;20040;-33
2022/06/08 03:33:26;;;;;;;47.70;21.95;;;8.90;99.90;;;;;;5072442;28;20479;-33
2022/06/08 03:35:52;;;;;;;63.42;25.80;;;8.50;99.90;;;;;;5073541;28;20045;-33
2022/06/08 03:38:18;;;;;;;47.33;23.33;;;8.60;99.90;;;;;;5073546;28;20107;-33
2022/06/08 03:40:43;;;;;;;48.90;23.90;;;8.70;99.90;;;;;;5073335;28;20045;-33
2022/06/08 03:43:10;;;;;;;57.15;25.25;;;8.90;99.90;;;;;;5073482;28;20047;-35
2022/06/08 03:45:46;;;;;;;51.22;24.70;;;8.70;99.90;;;;;;5073578;28;20044;-33
2022/06/08 03:48:12;;;;;;;53.50;24.85;;;8.60;99.90;;;;;;5074234;28;20093;-33
2022/06/08 03:50:41;;;;;;;54.72;26.02;;;8.90;99.90;;;;;;5060012;28;20131;-33
2022/06/08 03:53:13;;;;;;;52.53;24.85;;;8.70;99.90;;;;;;5077620;28;20044;-34
2022/06/08 03:55:39;;;;;;;63.83;26.40;;;8.70;99.90;;;;;;5078109;28;20044;-35
2022/06/08 03:58:05;;;;;;;56.75;28.27;;;9.10;99.90;;;;;;5077454;28;20048;-34
2022/06/08 04:00:32;;;;;;;60.97;28.77;;;8.70;99.90;;;;;;5077378;28;20045;-33
2022/06/08 04:02:58;;;;;;;59.22;27.88;;;9.00;99.90;;;;;;5077034;28;20494;-33
2022/06/08 04:05:24;;;;;;;56.53;27.40;;;9.10;99.90;;;;;;5077593;28;20048;-33
2022/06/08 04:07:49;;;;;;;57.47;28.30;;;9.10;99.90;;;;;;5077437;28;20442;-33
2022/06/08 04:10:15;;;;;;;58.53;27.67;;;9.10;99.90;;;;;;5077200;28;20518;-33
2022/06/08 04:12:41;;;;;;;55.55;28.48;;;;;;;;;;5077184;28;20127;-33
2022/06/08 04:15:08;;;;;;;53.88;26.17;;;;;;;;;;5075597;28;20382;-35
2022/06/08 04:17:34;;;;;;;52.50;26.85;;;;;;;;;;5077461;28;20052;-33
2022/06/08 04:20:00;;;;;;;57.55;27.50;;;;;;;;;;5077044;28;20091;-34
2022/06/08 04:22:31;;;;;;;55.28;27.20;;;;;;;;;;5076987;28;20047;-33
2022/06/08 04:25:00;;;;;;;53.28;28.25;;;;;;;;;;5077060;28;20060;-34
2022/06/08 04:27:26;;;;;;;51.17;27.98;;;;;;;;;;5077170;28;20049;-34
2022/06/08 04:29:53;;;;;;;49.25;27.77;;;;;;;;;;5076867;28;20044;-33
2022/06/08 04:32:19;;;;;;;51.92;29.48;;;;;;;;;;5076783;28;20044;-32
2022/06/08 04:34:45;;;;;;;45.55;27.45;;;;;;;;;;5077033;28;20044;-33
2022/06/08 04:37:11;;;;;;;50.45;28.30;;;;;;;;;;5076678;28;20095;-32
2022/06/08 04:39:37;;;;;;;51.70;28.20;;;;;;;;;;5059558;28;20056;-33
2022/06/08 04:42:04;;;;;;;51.13;29.48;;;;;;;;;;5076586;28;20098;-33
2022/06/08 04:44:30;;;;;;;44.17;27.63;;;;;;;;;;5077324;28;20072;-33
2022/06/08 04:46:56;;;;;;;42.83;26.95;;;;;;;;;;5076003;28;20386;-32
2022/06/08 04:49:22;;;;;;;49.53;28.88;;;;;;;;;;5076397;28;20511;-32
2022/06/08 04:51:48;;;;;;;45.55;27.83;;;;;;;;;;5076840;28;20051;-33
2022/06/08 04:54:14;;;;;;;48.70;28.17;;;;;;;;;;5075859;28;20080;-32
2022/06/08 04:56:40;;;;;;;45.80;26.08;;;;;;;;;;5074989;28;20481;-32
2022/06/08 04:59:06;;;;;;;43.28;26.75;;;;;;;;;;5077040;28;20122;-33
2022/06/08 05:01:33;;;;;;;41.58;26.05;;;;;;;;;;5076315;28;20402;-32
2022/06/08 05:03:59;;;;;;;40.10;25.92;;;;;;;;;;5076253;28;20123;-34
2022/06/08 05:06:26;;;;;;;42.28;25.95;;;;;;;;;;5058729;28;20048;-33
2022/06/08 05:08:52;;;;;;;41.20;25.38;;;;;;;;;;5074981;28;20040;-32
2022/06/08 05:11:18;;;;;;;37.42;24.58;;;;;;;;;;5076646;28;20098;-33
2022/06/08 05:13:46;;;;;;;39.22;24.55;;;;;;;;;;5074857;28;20390;-32
2022/06/08 05:16:12;;;;;;;39.00;26.10;;;;;;;;;;5076033;28;20486;-32
2022/06/08 05:18:39;;;;;;;38.72;24.15;;;;;;;;;;5075934;28;20052;-32
2022/06/08 05:21:06;;;;;;;39.92;24.25;;;;;;;;;;5075320;28;20130;-32
2022/06/08 05:23:37;;;;;;;34.47;22.20;;;;;;;;;;5059145;28;20053;-32
2022/06/08 05:26:03;;;;;;;32.60;21.75;;;;;;;;;;5075859;28;20048;-32
2022/06/08 05:28:29;;;;;;;31.50;22.88;;;;;;;;;;5075843;28;20044;-33
2022/06/08 05:30:56;;;;;;;33.65;21.38;;;;;;;;;;5075742;28;20095;-32
2022/06/08 05:33:23;;;;;;;31.00;21.02;;;;;;;;;;5076224;28;20131;-33
2022/06/08 05:35:49;;;;;;;33.20;22.00;;;;;;;;;;5076111;28;20151;-33
2022/06/08 05:38:16;;;;;;;30.10;20.83;;;;;;;;;;5075577;28;20051;-32
2022/06/08 05:40:42;;;;;;;29.05;21.25;;;;;;;;;;5075552;28;20139;-32
2022/06/08 05:43:09;;;;;;;28.70;20.50;;;;;;;;;;5075470;28;20490;-32
2022/06/08 05:45:35;;;;;;;29.73;21.10;;;;;;;;;;5075493;28;20063;-32
2022/06/08 05:48:04;;;;;;;29.73;20.42;;;;;;;;;;5074151;28;20052;-32
2022/06/08 05:50:30;;;;;;;28.40;20.13;;;;;;;;;;5075045;28;20048;-34
2022/06/08 05:52:57;;;;;;;25.92;18.65;;;;;;;;;;5075869;28;20040;-33
2022/06/08 05:55:24;;;;;;;27.75;18.65;;;;;;;;;;5075161;28;20044;-33
2022/06/08 05:57:51;;;;;;;28.23;19.42;;;;;;;;;;5075234;28;20455;-32
2022/06/08 06:00:19;;;;;;;24.63;18.13;;;;;;;;;;5074995;28;20098;-32
2022/06/08 06:02:45;;;;;;;25.67;17.83;;;;;;;;;;5075092;28;20083;-34
2022/06/08 06:05:14;;;;;;;26.25;19.33;;;;;;;;;;5075622;28;20050;-32
2022/06/08 06:07:42;;;;;;;25.65;19.83;;;;;;;;;;5074993;28;20548;-32
2022/06/08 06:10:09;;;;;;;23.42;18.02;;;;;;;;;;5056863;28;20139;-34
2022/06/08 06:12:35;;;;;;;23.73;18.63;;;;;;;;;;5058162;28;20056;-32
2022/06/08 06:15:01;;;;;;;27.38;18.42;;;;;;;;;;5073454;28;20476;-32
2022/06/08 06:17:31;;;;;;;20.60;17.25;;;;;;;;;;5075374;28;20044;-33
2022/06/08 06:19:58;;;;;;;20.35;16.75;;;;;;;;;;5075055;28;20083;-33
2022/06/08 06:22:24;;;;;;;22.65;17.73;;;;;;;;;;5074755;28;20434;-32
2022/06/08 06:24:50;;;;;;;18.20;15.23;;;;;;;;;;5074738;28;20052;-31
2022/06/08 06:27:16;;;;;;;19.30;15.30;;;;;;;;;;5074653;28;20128;-32
2022/06/08 06:29:42;;;;;;;19.80;15.05;;;;;;;;;;5073977;28;20080;-32
2022/06/08 06:32:13;;;;;;;16.98;13.27;;;;;;;;;;5073401;28;20044;-32
2022/06/08 06:34:39;;;;;;;16.77;14.00;;;;;;;;;;5074550;28;20097;-32
2022/06/08 06:37:05;;;;;;;18.10;13.93;;;;;;;;;;5074349;28;20044;-33
2022/06/08 06:39:31;;;;;;;18.95;13.82;;;;;;;;;;5074463;28;20059;-32
2022/06/08 06:41:57;;;;;;;15.60;12.35;;;;;;;;;;5073149;28;20394;-32
2022/06/08 06:44:24;;;;;;;15.43;12.90;;;;;;;;;;5073377;28;20462;-32
2022/06/08 06:46:50;;;;;;;14.60;11.50;;;;;;;;;;5073310;28;20552;-31
2022/06/08 06:49:17;;;;;;;23.27;11.55;;;;;;;;;;5074208;28;20127;-32
2022/06/08 06:51:43;;;;;;;18.33;11.30;;;;;;;;;;5074211;28;20502;-33
2022/06/08 06:54:11;;;;;;;11.65;9.75;;;;;;;;;;5072974;28;20080;-32
2022/06/08 06:56:37;;;;;;;19.95;12.63;;;;;;;;;;5074565;28;20043;-32
2022/06/08 06:59:04;;;;;;;13.70;9.98;;;;;;;;;;5074883;28;20098;-32
2022/06/08 07:01:30;;;;;;;16.90;10.68;;;;;;;;;;5074569;28;20092;-33
2022/06/08 07:03:57;;;;;;;11.85;8.70;;;;;;;;;;5073982;28;20047;-33
2022/06/08 07:06:23;;;;;;;10.20;8.50;;;;;;;;;;5073916;28;20118;-34
2022/06/08 07:08:49;;;;;;;13.63;9.27;;;;;;;;;;5074776;28;20123;-34
2022/06/08 07:14:02;;;;;;;13.43;9.65;;;;;;;;;;5073759;28;20052;-34
2022/06/08 07:16:28;;;;;;;11.45;8.18;;;;;;;;;;5072814;28;20144;-33
2022/06/08 07:18:54;;;;;;;12.63;9.43;;;;;;;;;;5074627;28;20052;-34
2022/06/08 07:21:21;;;;;;;12.52;9.13;;;;;;;;;;5072521;28;20094;-33
2022/06/08 07:23:47;;;;;;;12.13;9.70;;;;;;;;;;5072952;28;20497;-34
2022/06/08 07:26:13;;;;;;;11.25;8.50;;;;;;;;;;5072540;28;20048;-33
2022/06/08 07:28:39;;;;;;;12.07;9.02;;;;;;;;;;5073994;28;20469;-34
2022/06/08 07:31:06;;;;;;;11.43;9.57;;;;;;;;;;5073968;28;20048;-34
2022/06/08 07:33:33;;;;;;;12.70;8.10;;;;;;;;;;5073663;28;20049;-35
2022/06/08 07:36:00;;;;;;;16.25;10.55;;;;;;;;;;5073584;28;20390;-35
2022/06/08 07:38:26;;;;;;;12.40;9.75;;;;;;;;;;5073435;28;20076;-33
2022/06/08 07:40:52;;;;;;;13.00;8.55;;;;;;;;;;5072594;28;20048;-36
2022/06/08 07:43:19;;;;;;;8.48;7.05;;;;;;;;;;5074061;28;20044;-36
2022/06/08 07:45:45;;;;;;;12.80;8.93;;;;;;;;;;5073471;28;20048;-38
2022/06/08 07:50:56;;;;;;;10.20;7.88;;;;;;;;;;5073463;28;20052;-34
2022/06/08 07:53:22;;;;;;;9.68;7.13;;;;;;;;;;5072499;28;20102;-33
2022/06/08 07:55:48;;;;;;;8.88;7.18;;;;;;;;;;5072345;28;20083;-40
2022/06/08 07:58:15;;;;;;;12.50;7.93;;;;;;;;;;5072179;28;20367;-35
2022/06/08 08:00:46;;;;;;;7.72;6.18;;;;;;;;;;5073191;28;20586;-36
2022/06/08 08:03:13;;;;;;;9.88;7.40;;;;;;;;;;5073959;28;20048;-38
2022/06/08 08:05:39;;;;;;;9.75;7.50;;;;;;;;;;5072083;28;20520;-36
2022/06/08 08:08:05;;;;;;;11.02;8.57;;;;;;;;;;5073198;28;20048;-38
2022/06/08 08:10:31;;;;;;;8.98;6.63;;;;;;;;;;5073361;28;20088;-40
2022/06/08 08:12:57;;;;;;;10.93;8.55;;;;;;;;;;5074078;28;20044;-36
2022/06/08 08:15:24;;;;;;;9.73;8.10;;;;;;;;;;5072977;28;20482;-37
2022/06/08 08:17:50;;;;;;;9.95;7.82;;;;;;;;;;5072308;28;20068;-35
2022/06/08 08:20:17;;;;;;;11.15;6.88;;;;;;;;;;5073782;28;20047;-35
2022/06/08 08:22:46;;;;;;;8.98;6.28;;;;;;;;;;5073102;28;20478;-36
2022/06/08 08:25:12;;;;;;;8.70;5.68;;;;;;;;;;5073109;28;20129;-36
2022/06/08 08:27:39;;;;;;;7.65;6.07;;;;;;;;;;5073130;28;20049;-37
2022/06/08 08:30:05;;;;;;;7.40;5.57;;;;;;;;;;5055734;28;20056;-39
2022/06/08 08:32:31;;;;;;;6.75;5.32;;;;;;;;;;5073088;28;20045;-37
2022/06/08 08:34:57;;;;;;;6.80;4.88;;;;;;;;;;5075850;28;20398;-38
2022/06/08 08:37:23;;;;;;;6.35;4.75;;;;;;;;;;5075443;28;20040;-37
2022/06/08 08:39:49;;;;;;;5.85;3.80;;;;;;;;;;5076761;28;20117;-38
2022/06/08 08:42:22;;;;;;;6.18;4.32;;;;;;;;;;5076676;28;20057;-37
2022/06/08 08:44:48;;;;;;;6.80;4.10;;;;;;;;;;5076681;28;20127;-40
2022/06/08 08:47:33;;;;;;;7.10;4.07;;;;;;;;;;5076560;28;20045;-37
2022/06/08 08:49:59;;;;;;;7.32;3.58;;;;;;;;;;5077364;28;20054;-37
2022/06/08 08:52:27;;;;;;;6.15;3.60;;;;;;;;;;5077091;28;20053;-35
2022/06/08 08:54:58;;;;;;;3.67;3.05;;;;;;;;;;5077220;28;20048;-40
2022/06/08 08:57:50;;;;;;;3.97;2.50;;;;;;;;;;5076331;28;20044;-36
2022/06/08 09:00:37;;;;;;;3.97;2.07;;;;;;;;;;5073195;28;20091;-41
2022/06/08 09:03:18;;;;;;;4.28;2.05;;;;;;;;;;5076322;28;20791;-37
2022/06/08 09:05:46;;;;;;;4.65;1.83;;;;;;;;;;5076723;28;20048;-41
2022/06/08 09:08:12;;;;;;;2.92;1.75;;;;;;;;;;5077054;28;20074;-37
2022/06/08 09:10:38;;;;;;;2.55;1.55;;;;;;;;;;5072675;28;20478;-41
2022/06/08 09:13:05;;;;;;;3.33;1.17;;;;;;;;;;5057700;28;20068;-40
2022/06/08 09:15:43;;;;;;;3.22;1.55;;;;;;;;;;5060075;28;20051;-41
2022/06/08 09:18:18;;;;;;;4.53;1.40;;;;;;;;;;5056532;28;20053;-41
2022/06/08 09:20:44;;;;;;;2.80;1.30;;;;;;;;;;5055865;28;20052;-41
2022/06/08 09:23:19;;;;;;;2.85;0.93;;;;;;;;;;5058837;28;20052;-41
2022/06/08 09:25:45;;;;;;;3.80;1.30;;;;;;;;;;5055840;28;20041;-41
2022/06/08 09:28:24;;;;;;;2.92;1.35;;;;;;;;;;5055818;28;20131;-41
2022/06/08 09:30:51;;;;;;;4.25;1.63;;;;;;;;;;5054799;28;20078;-40
2022/06/08 09:33:23;;;;;;;2.63;1.05;;;;;;;;;;5055953;28;20407;-41
2022/06/08 09:35:57;;;;;;;1.92;1.02;;;;;;;;;;5056198;28;20048;-41
2022/06/08 09:38:24;;;;;;;1.80;1.35;;;;;;;;;;5068150;28;20067;-42
2022/06/08 09:40:56;;;;;;;3.78;1.50;;;;;;;;;;5076391;28;20127;-41
2022/06/08 09:43:25;;;;;;;4.63;2.60;;;;;;;;;;5075593;28;20052;-41
2022/06/08 09:46:00;;;;;;;3.20;1.60;;;;;;;;;;5074525;28;20135;-38
2022/06/08 09:51:38;;;;;;;2.40;1.60;;;;;;;;;;5075504;28;20048;-42
2022/06/08 09:54:04;;;;;;;3.42;1.63;;;;;;;;;;5058659;28;20118;-42
2022/06/08 09:56:30;;;;;;;4.72;1.85;;;;;;;;;;5037430;28;20040;-41
2022/06/08 09:59:15;;;;;;;2.83;1.75;;;;;;;;;;5055240;28;20106;-42
2022/06/08 10:01:52;;;;;;;3.20;1.88;;;;;;;;;;5072659;28;20456;-42
2022/06/08 10:04:18;;;;;;;3.13;2.20;;;;;;;;;;5074210;28;20052;-42
2022/06/08 10:06:59;;;;;;;3.88;1.65;;;;;;;;;;5071089;28;20075;-42
2022/06/08 10:09:46;;;;;;;5.78;1.92;;;;;;;;;;5054874;28;20044;-42
2022/06/08 10:12:24;;;;;;;3.80;1.25;;;;;;;;;;5060000;28;20068;-43
2022/06/08 10:14:56;;;;;;;3.55;1.27;;;;;;;;;;5056873;28;20045;-43
2022/06/08 10:17:26;;;;;;;3.75;1.65;;;;;;;;;;5059112;28;20057;-42
2022/06/08 10:19:59;;;;;;;4.20;1.10;;;;;;;;;;5055100;28;20119;-42
2022/06/08 10:22:27;;;;;;;5.15;1.40;;;;;;;;;;5064516;28;20044;-42
2022/06/08 10:25:01;;;;;;;4.75;1.30;;;;;;;;;;5074711;28;20088;-42
2022/06/08 10:27:49;;;;;;;2.22;1.30;;;;;;;;;;5044965;28;20094;-42
2022/06/08 10:30:24;;;;;;;2.15;0.95;;;;;;;;;;5054179;28;20186;-42
2022/06/08 10:32:54;;;;;;;2.17;1.27;;;;;;;;;;5056664;28;20041;-43
2022/06/08 10:35:23;;;;;;;2.38;1.17;;;;;;;;;;5053599;28;20048;-41
2022/06/08 10:37:50;;;;;;;1.75;1.50;;;;;;;;;;5067685;28;20048;-43
2022/06/08 10:40:25;;;;;;;4.22;1.58;;;;;;;;;;5059664;28;20056;-42
2022/06/08 10:42:51;;;;;;;2.83;1.17;;;;;;;;;;5055272;28;20044;-42
2022/06/08 10:45:24;;;;;;;3.75;1.40;;;;;;;;;;5056274;28;20049;-42
2022/06/08 10:47:53;;;;;;;2.65;1.25;;;;;;;;;;5054334;28;20049;-42
2022/06/08 10:50:28;;;;;;;7.63;1.85;;;;;;;;;;5054532;28;20059;-42
2022/06/08 10:54:53;;;;;;;3.53;2.03;;;;;;;;;;5067729;28;20521;-42
2022/06/08 10:55:41;;;;;;;3.30;1.50;;;;;;;;;;5074611;28;20045;-42
2022/06/08 10:58:08;;;;;;;4.00;2.60;;;;;;;;;;5067752;28;20101;-42
2022/06/08 11:00:51;;;;;;;4.43;2.35;;;;;;;;;;5073046;28;20094;-42
2022/06/08 11:03:22;;;;;;;5.75;2.88;;;;;;;;;;5074006;28;20048;-43
2022/06/08 11:05:48;;;;;;;5.07;2.72;;;;;;;;;;5074159;28;20137;-42
2022/06/08 11:08:17;;;;;;;3.15;2.20;;;;;;;;;;5072949;28;20482;-42
2022/06/08 11:10:53;;;;;;;2.70;1.77;;;;;;;;;;5073286;28;20060;-43
2022/06/08 11:13:23;;;;;;;4.10;1.90;;;;;;;;;;5072708;28;20060;-43
2022/06/08 11:15:49;;;;;;;7.70;2.03;;;;;;;;;;5073935;28;20395;-43
2022/06/08 11:18:21;;;;;;;3.03;1.55;;;;;;;;;;5073462;28;20546;-43
2022/06/08 11:21:10;;;;;;;15.88;3.70;;;;;;;;;;5073823;28;20048;-45
2022/06/08 11:23:43;;;;;;;11.85;2.05;;;;;;;;;;5037408;28;20059;-34
2022/06/08 11:26:14;;;;;;;8.23;2.33;;;;;;;;;;5073492;28;20429;-41
2022/06/08 11:28:44;;;;;;;4.35;1.95;;;;;;;;;;5073713;28;20051;-40
2022/06/08 11:31:31;;;;;;;7.38;4.13;;;;;;;;;;5073716;28;20102;-40
2022/06/08 11:34:03;;;;;;;5.47;3.40;;;;;;;;;;5074191;28;20052;-39
2022/06/08 11:36:32;;;;;;;8.25;5.15;;;;;;;;;;5073934;28;20079;-38
2022/06/08 11:39:17;;;;;;;8.88;4.95;;;;;;;;;;5073610;28;20059;-38
2022/06/08 11:41:44;;;;;;;7.15;5.65;;;;;;;;;;5073904;28;20044;-35
2022/06/08 11:44:16;;;;;;;9.13;5.30;;;;;;;;;;5073572;28;20052;-35
2022/06/08 11:46:53;;;;;;;6.88;4.93;;;;;;;;;;5074403;28;20040;-38
2022/06/08 11:49:26;;;;;;;6.70;4.75;;;;;;;;;;5073644;28;20055;-36
2022/06/08 11:51:52;;;;;;;10.27;4.97;;;;;;;;;;5074033;28;20049;-35
2022/06/08 11:54:25;;;;;;;10.15;7.10;;;;;;;;;;5074000;28;20056;-33
2022/06/08 11:56:57;;;;;;;12.38;8.13;;;;;;;;;;5073092;28;20417;-32
2022/06/08 11:59:23;;;;;;;9.27;5.20;;;;;;;;;;5073510;28;20080;-31
2022/06/08 12:01:52;;;;;;;8.52;5.25;;;;;;;;;;5073932;28;20773;-31
2022/06/08 12:04:26;;;;;;;9.10;6.35;;;;;;;;;;5073375;28;20041;-31
2022/06/08 12:06:53;;;;;;;9.13;6.53;;;;;;;;;;5072304;28;20063;-31
2022/06/08 12:09:22;;;;;;;10.65;7.72;;;;;;;;;;5075503;28;20047;-30
2022/06/08 12:11:56;;;;;;;10.15;7.22;;;;;;;;;;5076343;28;20540;-30
2022/06/08 12:14:30;;;;;;;11.70;8.05;;;;;;;;;;5076944;28;20495;-31
2022/06/08 12:17:05;;;;;;;11.88;8.63;;;;;;;;;;5068714;28;20049;-31
2022/06/08 12:19:48;;;;;;;13.48;8.68;;;;;;;;;;5071049;28;20053;-30
2022/06/08 12:22:19;;;;;;;9.82;7.40;;;;;;;;;;5067112;28;20154;-30
2022/06/08 12:25:04;;;;;;;10.68;7.05;;;;;;;;;;5057177;28;20053;-31
2022/06/08 12:27:39;;;;;;;9.98;7.63;;;;;;;;;;5073519;28;20043;-31
2022/06/08 12:30:21;;;;;;;9.35;6.22;;;;;;;;;;5075987;28;20535;-31
2022/06/08 12:32:52;;;;;;;8.95;6.10;;;;;;;;;;5076947;28;20087;-30
2022/06/08 12:35:34;;;;;;;8.02;5.85;;;;;;;;;;5075728;28;20048;-31
2022/06/08 12:38:04;;;;;;;8.85;6.25;;;;;;;;;;5075644;28;20059;-32
2022/06/08 12:40:31;;;;;;;7.30;5.10;;;;;;;;;;5059069;28;20048;-31
2022/06/08 12:43:12;;;;;;;9.55;5.75;;;;;;;;;;5075716;28;20116;-31
2022/06/08 12:45:43;;;;;;;9.13;5.68;;;;;;;;;;5076628;28;20048;-32
2022/06/08 12:48:32;;;;;;;8.50;5.28;;;;;;;;;;5064224;28;20049;-32
2022/06/08 12:50:58;;;;;;;7.40;5.60;;;;;;;;;;5056461;28;20399;-32
2022/06/08 12:53:25;;;;;;;7.75;5.18;;;;;;;;;;5057059;28;20048;-33
2022/06/08 12:55:55;;;;;;;7.53;4.70;;;;;;;;;;5056369;28;20045;-33
2022/06/08 12:58:23;;;;;;;8.90;4.65;;;;;;;;;;5058135;28;20055;-40
2022/06/08 13:00:54;;;;;;;7.88;4.25;;;;;;;;;;5074249;28;20065;-36
2022/06/08 13:03:22;;;;;;;5.55;3.70;;;;;;;;;;5073204;28;20052;-40
2022/06/08 13:05:48;;;;;;;6.22;3.90;;;;;;;;;;5070940;28;20134;-38
2022/06/08 13:08:17;;;;;;;14.82;4.70;;;;;;;;;;5065054;28;20048;-39
2022/06/08 13:10:44;;;;;;;7.10;3.88;;;;;;;;;;5069684;28;20123;-40
2022/06/08 13:13:19;;;;;;;7.07;4.20;;;;;;;;;;5073612;28;20113;-42
2022/06/08 13:15:46;;;;;;;6.60;4.47;;;;;;;;;;5061977;28;20053;-43
2022/06/08 13:18:17;;;;;;;7.78;4.75;;;;;;;;;;5062296;28;20080;-42
2022/06/08 13:20:43;;;;;;;8.27;3.92;;;;;;;;;;5068549;28;20040;-42
2022/06/08 13:23:09;;;;;;;7.18;4.28;;;;;;;;;;5061665;28;20045;-42
2022/06/08 13:25:36;;;;;;;3.92;2.10;;;;;;;;;;5070884;28;20044;-41
2022/06/08 13:28:08;;;;;;;5.88;2.20;;;;;;;;;;5068925;28;20076;-41
2022/06/08 13:30:34;;;;;;;4.93;4.10;;;;;;;;;;5065075;28;20080;-43
2022/06/08 13:33:00;;;;;;;7.78;6.70;;;;;;;;;;5055671;28;20052;-42
2022/06/08 13:35:28;;;;;;;9.07;8.10;;;;;;;;;;5053562;28;20486;-42
2022/06/08 13:37:55;;;;;;;9.52;8.10;;;;;;;;;;5055085;28;20048;-43
2022/06/08 13:40:23;;;;;;;12.73;11.43;;;;;;;;;;5055542;28;20056;-44
2022/06/08 13:42:50;;;;;;;13.50;12.00;;;;;;;;;;5055548;28;20080;-42
2022/06/08 13:45:31;;;;;;;15.10;13.68;;;;;;;;;;5054437;28;20041;-43
2022/06/08 13:47:59;;;;;;;17.35;14.23;;;;;;;;;;5055444;28;20041;-43
2022/06/08 13:50:40;;;;;;;17.02;15.43;;;;;;;;;;5054455;28;20122;-43
2022/06/08 13:53:08;;;;;;;16.27;14.63;;;;;;;;;;5055996;28;20064;-43
2022/06/08 13:55:37;;;;;;;17.88;15.52;;;;;;;;;;5055789;28;20094;-43
2022/06/08 13:58:04;;;;;;;18.23;15.40;;;;;;;;;;5055258;28;20044;-44
2022/06/08 14:00:33;;;;;;;18.00;14.15;;;;;;;;;;5055250;28;20391;-43
2022/06/08 14:03:01;;;;;;;18.27;16.38;;;;;;;;;;5055203;28;20483;-44
2022/06/08 14:13:51;;;;;;;15.18;13.73;;;;;;;;;;5055031;28;20049;-45
2022/06/08 14:16:17;;;;;;;13.23;11.93;;;;;;;;;;5054776;28;20067;-43
2022/06/08 14:18:46;;;;;;;13.45;12.13;;;;;;;;;;5054834;28;20483;-44
2022/06/08 14:21:13;;;;;;;15.48;12.60;;;;;;;;;;5055408;28;20087;-44
2022/06/08 14:23:41;;;;;;;12.13;10.40;;;;;;;;;;5055613;28;20045;-44
2022/06/08 14:26:08;;;;;;;12.52;10.77;;;;;;;;;;5053607;28;20044;-43
2022/06/08 14:28:35;;;;;;;12.95;10.95;;;;;;;;;;5053469;28;20048;-43
2022/06/08 14:31:01;;;;;;;15.98;12.43;;;;;;;;;;5053719;28;20089;-44
2022/06/08 14:33:32;;;;;;;11.18;10.10;;;;;;;;;;5053551;28;20056;-44